Volcan De Teneguia — ECLA — position and weather

sailwx.info

Track history (hours):
 
Tides and Currents Weather Stations Pressure Air Temp Water Temp Dewpoint Dewpoint Depression Visibility Wind Speed Wind Dir Waves Ship Positions

Volcan De Teneguia

Last reported at 2017-Aug-19 07:30 UTC. Time now 2017-Aug-19 07:38 UTC.
Position N 29°10' W 015°18'.

Length 145 m; draft 5.2 m.

Type: Cargo ship. MMSI: 225317000.

Date/timePositionNaut miles runAvg speedWind from/ knotsBaromVisibWave heightAir tempDewpointWater temp
2017-Aug-19 07:30N 29°10' W 015°18'611.9
2017-Aug-19 07:00N 29°06' W 015°23'611.8
2017-Aug-19 06:30N 29°02' W 015°28'611.5
2017-Aug-19 06:00N 28°58' W 015°32'611.3
2017-Aug-19 05:29N 28°54' W 015°37'511.2
2017-Aug-19 05:00N 28°50' W 015°41'611.4
2017-Aug-19 04:26N 28°45' W 015°46'511.4
2017-Aug-19 04:00N 28°42' W 015°50'611.6
2017-Aug-19 03:30N 28°38' W 015°55'611.2
2017-Aug-19 02:57N 28°34' W 016°01'610.9
2017-Aug-19 02:26N 28°31' W 016°06'510.4
2017-Aug-19 01:55N 28°29' W 016°11'2 0.5
2017-Aug-18 21:48N 28°29' W 016°14'0 0.0
2017-Aug-18 21:21N 28°29' W 016°14'0 0.0
2017-Aug-18 20:51N 28°29' W 016°14'0 0.0
2017-Aug-18 20:21N 28°29' W 016°14'0 0.0
2017-Aug-18 19:48N 28°29' W 016°14'0 0.0
2017-Aug-18 19:30N 28°29' W 016°14'2 3.8
2017-Aug-18 18:59N 28°28' W 016°12'713.4
2017-Aug-18 18:29N 28°25' W 016°05'613.4
2017-Aug-18 18:00N 28°23' W 015°58'613.2
2017-Aug-18 17:30N 28°21' W 015°51'713.6
2017-Aug-18 17:00N 28°19' W 015°44'714.0
2017-Aug-18 16:30N 28°16' W 015°36'713.4
2017-Aug-18 16:00N 28°14' W 015°29'612.0
2017-Aug-18 15:30N 28°11' W 015°23'4 7.0
2017-Aug-18 15:00N 28°08' W 015°25'1 1.5
2017-Aug-18 14:19N 28°09' W 015°25'0 0.0
2017-Aug-18 13:22N 28°09' W 015°25'0 0.0
2017-Aug-18 12:55N 28°09' W 015°25'0 0.0
2017-Aug-18 12:25N 28°09' W 015°25'0 0.0
2017-Aug-18 11:55N 28°09' W 015°25'0 0.0
2017-Aug-18 11:25N 28°09' W 015°25'0 0.0
2017-Aug-18 10:55N 28°09' W 015°25'0 0.0
2017-Aug-18 10:25N 28°09' W 015°25'0 0.0
2017-Aug-18 09:58N 28°09' W 015°25'0 0.0
2017-Aug-18 09:28N 28°09' W 015°25'0 0.0
2017-Aug-18 08:58N 28°09' W 015°25'0 0.0
2017-Aug-18 08:28N 28°09' W 015°25'0 0.0
2017-Aug-18 07:58N 28°09' W 015°25'0 0.0
2017-Aug-18 07:30N 28°09' W 015°25'0 0.5
2017-Aug-18 07:00N 28°09' W 015°25'2 4.0
2017-Aug-18 06:30N 28°08' W 015°23'5 9.9
2017-Aug-18 06:00N 28°12' W 015°25'713.8
2017-Aug-18 05:30N 28°13' W 015°32'713.4
2017-Aug-18 05:00N 28°15' W 015°40'713.1
2017-Aug-18 04:30N 28°17' W 015°47'713.1
2017-Aug-18 04:00N 28°20' W 015°54'613.2
2017-Aug-18 03:30N 28°23' W 016°00'913.1
2017-Aug-18 02:52N 28°27' W 016°09'511.5
2017-Aug-18 02:26N 28°29' W 016°14'0 0.9
2017-Aug-18 02:00N 28°29' W 016°14'0 0.0
2017-Aug-18 01:30N 28°29' W 016°14'0 0.0
2017-Aug-18 01:00N 28°29' W 016°14'0 0.0
2017-Aug-18 00:30N 28°29' W 016°14'0 0.0
2017-Aug-18 00:00N 28°29' W 016°14'0 0.0
2017-Aug-17 23:30N 28°29' W 016°14'0 0.0
2017-Aug-17 23:00N 28°29' W 016°14'0 0.0
2017-Aug-17 22:29N 28°29' W 016°14'0 0.0
2017-Aug-17 22:00N 28°29' W 016°14'0 0.0
2017-Aug-17 21:30N 28°29' W 016°14'0 0.0
2017-Aug-17 21:00N 28°29' W 016°14'0 0.0
2017-Aug-17 20:30N 28°29' W 016°14'0 0.0
2017-Aug-17 20:00N 28°29' W 016°14'0 0.0
2017-Aug-17 19:30N 28°29' W 016°14'0 0.0
2017-Aug-17 19:00N 28°29' W 016°14'0 0.0
2017-Aug-17 18:30N 28°29' W 016°14'0 0.0
2017-Aug-17 18:00N 28°29' W 016°14'0 0.0
2017-Aug-17 17:30N 28°29' W 016°14'0 0.0
2017-Aug-17 17:00N 28°29' W 016°14'0 0.0
2017-Aug-17 16:30N 28°29' W 016°14'0 0.0
2017-Aug-17 16:00N 28°29' W 016°14'0 0.0
2017-Aug-17 15:29N 28°29' W 016°14'0 0.0
2017-Aug-17 14:32N 28°29' W 016°14'0 0.0
2017-Aug-17 14:29N 28°29' W 016°14'0 0.0
2017-Aug-17 13:58N 28°29' W 016°14'0 0.0
2017-Aug-17 13:30N 28°29' W 016°14'0 0.0
2017-Aug-17 12:59N 28°29' W 016°14'0 0.6
2017-Aug-17 12:29N 28°29' W 016°14'2 3.2
2017-Aug-17 12:00N 28°28' W 016°12'611.9
2017-Aug-17 11:29N 28°31' W 016°06'714.5
2017-Aug-17 11:00N 28°36' W 016°00'714.3
2017-Aug-17 10:30N 28°41' W 015°55'714.3
2017-Aug-17 10:00N 28°46' W 015°49'714.5
2017-Aug-17 09:30N 28°51' W 015°43'714.4
2017-Aug-17 09:00N 28°56' W 015°37'714.3
2017-Aug-17 08:30N 29°01' W 015°32'714.5
2017-Aug-17 08:00N 29°07' W 015°26'714.3
2017-Aug-17 07:30N 29°12' W 015°20'714.3
2017-Aug-17 07:00N 29°17' W 015°14'714.3
2017-Aug-17 06:30N 29°22' W 015°09'714.3
2017-Aug-17 06:00N 29°27' W 015°03'714.8
2017-Aug-17 05:30N 29°33' W 014°57'715.1
2017-Aug-17 05:00N 29°38' W 014°52'713.6
2017-Aug-17 04:30N 29°41' W 014°45'714.5
2017-Aug-17 04:00N 29°46' W 014°39'814.5
2017-Aug-17 03:28N 29°52' W 014°32'1214.0
2017-Aug-17 02:37N 29°60' W 014°22'1614.5
2017-Aug-17 01:32N 30°11' W 014°09'114.9
2017-Aug-17 01:30N 30°11' W 014°08'1614.6
2017-Aug-17 00:24N 30°22' W 013°55'614.6
2017-Aug-17 00:01N 30°26' W 013°51'714.7
2017-Aug-16 23:30N 30°32' W 013°44'714.6
2017-Aug-16 23:01N 30°37' W 013°39'1614.5
2017-Aug-16 21:53N 30°48' W 013°25'614.4
2017-Aug-16 21:31N 30°52' W 013°20'714.3
2017-Aug-16 21:00N 30°57' W 013°14'714.2
2017-Aug-16 20:30N 31°02' W 013°08'714.1
2017-Aug-16 19:59N 31°07' W 013°02'714.1
2017-Aug-16 19:30N 31°12' W 012°57'714.1
2017-Aug-16 19:00N 31°17' W 012°51'814.0
2017-Aug-16 18:26N 31°22' W 012°44'614.2
2017-Aug-16 18:00N 31°27' W 012°39'714.2
2017-Aug-16 17:31N 31°32' W 012°33'714.1
2017-Aug-16 17:00N 31°36' W 012°27'714.1
2017-Aug-16 16:30N 31°41' W 012°21'814.2
2017-Aug-16 15:57N 31°46' W 012°14'714.5
2017-Aug-16 15:30N 31°51' W 012°08'1714.3
2017-Aug-16 14:18N 32°03' W 011°54'4414.2
2017-Aug-16 11:13N 32°34' W 011°18'2614.0
2017-Aug-16 09:21N 32°52' W 010°55'1414.2
2017-Aug-16 08:20N 33°02' W 010°43'514.4
2017-Aug-16 08:00N 33°06' W 010°39'11913.7
2017-Aug-15 23:21N 34°29' W 008°57'1613.5
2017-Aug-15 22:12N 34°40' W 008°43'313.7
2017-Aug-15 22:00N 34°42' W 008°41'1314.0
2017-Aug-15 21:07N 34°50' W 008°30'314.2
2017-Aug-15 20:55N 34°52' W 008°28'3114.5
2017-Aug-15 18:48N 35°13' W 008°01'514.4
2017-Aug-15 18:27N 35°17' W 007°56'2314.3
2017-Aug-15 16:53N 35°33' W 007°37'614.5
2017-Aug-15 16:29N 35°37' W 007°32'714.4
2017-Aug-15 16:00N 35°42' W 007°26'  
2017-Aug-13 11:46N 33°12' W 010°04'3413.5
2017-Aug-13 09:15N 32°48' W 010°34'313.8
2017-Aug-13 09:00N 32°46' W 010°37'713.8
2017-Aug-13 08:30N 32°42' W 010°43'11012.9
2017-Aug-13 00:02N 31°25' W 012°16'112.9
2017-Aug-12 23:59N 31°25' W 012°16'712.7
2017-Aug-12 23:24N 31°20' W 012°22'512.5
2017-Aug-12 23:00N 31°16' W 012°26'612.4
2017-Aug-12 22:30N 31°12' W 012°31'612.9
2017-Aug-12 22:00N 31°07' W 012°37'612.8
2017-Aug-12 21:30N 31°03' W 012°42'612.4
2017-Aug-12 21:00N 30°59' W 012°47'712.5
2017-Aug-12 20:29N 30°54' W 012°53'912.7
2017-Aug-12 19:48N 30°49' W 013°01'412.8
2017-Aug-12 19:30N 30°46' W 013°04'612.6
2017-Aug-12 19:00N 30°42' W 013°09'613.0
2017-Aug-12 18:30N 30°38' W 013°15'713.2
2017-Aug-12 18:00N 30°33' W 013°21'613.0
2017-Aug-12 17:30N 30°29' W 013°27'613.2
2017-Aug-12 17:00N 30°25' W 013°33'713.2
2017-Aug-12 16:30N 30°21' W 013°39'713.4
2017-Aug-12 16:00N 30°17' W 013°45'913.0
2017-Aug-12 15:21N 30°12' W 013°53'713.3
2017-Aug-12 14:50N 30°08' W 013°59'6313.3
2017-Aug-12 10:06N 29°27' W 014°54'313.3
2017-Aug-12 09:55N 29°26' W 014°57'513.1
2017-Aug-12 09:30N 29°22' W 015°01'612.9
2017-Aug-12 09:00N 29°18' W 015°07'612.8
2017-Aug-12 08:30N 29°14' W 015°12'612.7
2017-Aug-12 08:00N 29°10' W 015°18'611.9
2017-Aug-12 07:30N 29°06' W 015°23'612.1
2017-Aug-12 07:00N 29°02' W 015°28'612.1
2017-Aug-12 06:30N 28°58' W 015°34'612.2
2017-Aug-12 06:00N 28°54' W 015°39'612.4
2017-Aug-12 05:30N 28°50' W 015°44'612.1
2017-Aug-12 05:00N 28°46' W 015°49'611.8
2017-Aug-12 04:30N 28°41' W 015°54'612.0
2017-Aug-12 04:00N 28°37' W 015°58'611.8
2017-Aug-12 03:30N 28°33' W 016°03'612.2
2017-Aug-12 03:00N 28°29' W 016°09'4 8.5
2017-Aug-12 02:29N 28°29' W 016°14'0 0.2
2017-Aug-12 01:56N 28°29' W 016°14'0 0.0
2017-Aug-12 01:29N 28°29' W 016°14'0 0.0
2017-Aug-12 00:56N 28°29' W 016°14'0 0.0
2017-Aug-12 00:29N 28°29' W 016°14'0 0.0
2017-Aug-11 23:44N 28°29' W 016°14'0 0.0
2017-Aug-11 23:26N 28°29' W 016°14'0 0.0
2017-Aug-11 21:12N 28°29' W 016°14'1 3.1
2017-Aug-11 20:56N 28°28' W 016°14'5 5.2
2017-Aug-11 19:57N 28°28' W 016°08'1 1.6
2017-Aug-11 19:30N 28°27' W 016°09'611.2
2017-Aug-11 19:00N 28°24' W 016°13'3 5.3
2017-Aug-11 18:30N 28°22' W 016°16'611.6
2017-Aug-11 18:00N 28°23' W 016°09'611.7
2017-Aug-11 17:29N 28°23' W 016°02'712.8
2017-Aug-11 16:58N 28°21' W 015°55'613.2
2017-Aug-11 16:30N 28°20' W 015°48'713.2
2017-Aug-11 16:00N 28°17' W 015°41'713.3
2017-Aug-11 15:30N 28°15' W 015°34'713.2
2017-Aug-11 15:00N 28°13' W 015°27'5 4.2
2017-Aug-11 13:56N 28°09' W 015°25'0 0.0
2017-Aug-11 13:29N 28°09' W 015°25'0 0.0
2017-Aug-11 12:59N 28°09' W 015°25'0 0.0
2017-Aug-11 12:29N 28°09' W 015°25'0 0.0
2017-Aug-11 11:59N 28°09' W 015°25'0 0.0
2017-Aug-11 11:29N 28°09' W 015°25'0 0.0
2017-Aug-11 10:59N 28°09' W 015°25'0 0.0
2017-Aug-11 10:29N 28°09' W 015°25'0 0.0
2017-Aug-11 09:56N 28°09' W 015°25'0 0.0
2017-Aug-11 09:29N 28°09' W 015°25'0 0.0
2017-Aug-11 08:59N 28°09' W 015°25'0 0.0
2017-Aug-11 08:29N 28°09' W 015°25'0 0.0
2017-Aug-11 07:59N 28°09' W 015°25'0 0.0
2017-Aug-11 07:30N 28°09' W 015°25'0 0.2
2017-Aug-11 07:00N 28°09' W 015°25'2 3.9
2017-Aug-11 06:30N 28°07' W 015°24'1 1.8
2017-Aug-11 06:00N 28°08' W 015°23'510.3
2017-Aug-11 05:30N 28°12' W 015°25'612.5
2017-Aug-11 05:00N 28°15' W 015°32'612.4
2017-Aug-11 04:30N 28°17' W 015°38'612.2
2017-Aug-11 04:00N 28°19' W 015°45'612.0
2017-Aug-11 03:30N 28°21' W 015°52'612.5
2017-Aug-11 03:00N 28°23' W 015°58'612.1
2017-Aug-11 02:29N 28°25' W 016°05'812.8
2017-Aug-11 01:53N 28°28' W 016°13'1 3.5
2017-Aug-11 01:30N 28°29' W 016°14'0 0.0
2017-Aug-11 00:58N 28°29' W 016°14'0 0.0
2017-Aug-11 00:30N 28°29' W 016°14'0 0.0
2017-Aug-11 00:00N 28°29' W 016°14'0 0.0
2017-Aug-10 23:30N 28°29' W 016°14'0 0.0
2017-Aug-10 23:00N 28°29' W 016°14'0 0.0
2017-Aug-10 22:30N 28°29' W 016°14'0 0.2
2017-Aug-10 22:00N 28°29' W 016°14'3 5.3
2017-Aug-10 21:30N 28°28' W 016°11'714.9
2017-Aug-10 21:00N 28°32' W 016°04'1014.9
2017-Aug-10 20:19N 28°40' W 015°55'414.3
2017-Aug-10 20:00N 28°43' W 015°52'714.2
2017-Aug-10 19:29N 28°48' W 015°46'714.0
2017-Aug-10 19:00N 28°53' W 015°40'713.9
2017-Aug-10 18:30N 28°58' W 015°35'714.0
2017-Aug-10 18:00N 29°03' W 015°29'813.9
2017-Aug-10 17:25N 29°08' W 015°22'613.7
2017-Aug-10 17:00N 29°12' W 015°18'713.8
2017-Aug-10 16:30N 29°17' W 015°12'713.1
2017-Aug-10 16:00N 29°21' W 015°06'713.4
2017-Aug-10 15:28N 29°26' W 015°00'913.5
2017-Aug-10 14:48N 29°33' W 014°53'1513.9
2017-Aug-10 13:43N 29°43' W 014°41'313.7
2017-Aug-10 13:29N 29°46' W 014°38'713.9
2017-Aug-10 12:58N 29°51' W 014°32'2714.0
2017-Aug-10 11:04N 30°10' W 014°11'114.1
2017-Aug-10 11:00N 30°10' W 014°10'713.9
2017-Aug-10 10:30N 30°15' W 014°05'2013.8
2017-Aug-10 09:05N 30°29' W 013°48'114.1
2017-Aug-10 08:58N 30°30' W 013°47'2514.0
2017-Aug-10 07:11N 30°47' W 013°26'1413.5
2017-Aug-10 06:07N 30°57' W 013°13'213.5
2017-Aug-10 06:00N 30°58' W 013°12'913.3
2017-Aug-10 05:19N 31°05' W 013°05'613.5
2017-Aug-10 04:53N 31°09' W 013°00'513.0
2017-Aug-10 04:30N 31°13' W 012°56'613.0
2017-Aug-10 04:00N 31°17' W 012°51'18713.5
2017-Aug-09 14:10N 33°27' W 010°12'313.8
2017-Aug-09 13:59N 33°29' W 010°10'2813.9
2017-Aug-09 11:59N 33°48' W 009°46'1013.9
2017-Aug-09 11:15N 33°55' W 009°37'  
Track history (hours):
 
Tides and Currents Weather Stations Pressure Air Temp Water Temp Dewpoint Dewpoint Depression Visibility Wind Speed Wind Dir Waves Ship Positions

Volcan De Teneguia

Last reported at 2017-Aug-19 07:30 UTC. Time now 2017-Aug-19 07:38 UTC.
Position N 29°10' W 015°18'.

Length 145 m; draft 5.2 m.

Type: Cargo ship. MMSI: 225317000.

Date/timePositionNaut miles runAvg speedWind from/ knotsBaromVisibWave heightAir tempDewpointWater temp
2017-Aug-19 07:30N 29°10' W 015°18'611.9
2017-Aug-19 07:00N 29°06' W 015°23'611.8
2017-Aug-19 06:30N 29°02' W 015°28'611.5
2017-Aug-19 06:00N 28°58' W 015°32'611.3
2017-Aug-19 05:29N 28°54' W 015°37'511.2
2017-Aug-19 05:00N 28°50' W 015°41'611.4
2017-Aug-19 04:26N 28°45' W 015°46'511.4
2017-Aug-19 04:00N 28°42' W 015°50'611.6
2017-Aug-19 03:30N 28°38' W 015°55'611.2
2017-Aug-19 02:57N 28°34' W 016°01'610.9
2017-Aug-19 02:26N 28°31' W 016°06'510.4
2017-Aug-19 01:55N 28°29' W 016°11'2 0.5
2017-Aug-18 21:48N 28°29' W 016°14'0 0.0
2017-Aug-18 21:21N 28°29' W 016°14'0 0.0
2017-Aug-18 20:51N 28°29' W 016°14'0 0.0
2017-Aug-18 20:21N 28°29' W 016°14'0 0.0
2017-Aug-18 19:48N 28°29' W 016°14'0 0.0
2017-Aug-18 19:30N 28°29' W 016°14'2 3.8
2017-Aug-18 18:59N 28°28' W 016°12'713.4
2017-Aug-18 18:29N 28°25' W 016°05'613.4
2017-Aug-18 18:00N 28°23' W 015°58'613.2
2017-Aug-18 17:30N 28°21' W 015°51'713.6
2017-Aug-18 17:00N 28°19' W 015°44'714.0
2017-Aug-18 16:30N 28°16' W 015°36'713.4
2017-Aug-18 16:00N 28°14' W 015°29'612.0
2017-Aug-18 15:30N 28°11' W 015°23'4 7.0
2017-Aug-18 15:00N 28°08' W 015°25'1 1.5
2017-Aug-18 14:19N 28°09' W 015°25'0 0.0
2017-Aug-18 13:22N 28°09' W 015°25'0 0.0
2017-Aug-18 12:55N 28°09' W 015°25'0 0.0
2017-Aug-18 12:25N 28°09' W 015°25'0 0.0
2017-Aug-18 11:55N 28°09' W 015°25'0 0.0
2017-Aug-18 11:25N 28°09' W 015°25'0 0.0
2017-Aug-18 10:55N 28°09' W 015°25'0 0.0
2017-Aug-18 10:25N 28°09' W 015°25'0 0.0
2017-Aug-18 09:58N 28°09' W 015°25'0 0.0
2017-Aug-18 09:28N 28°09' W 015°25'0 0.0
2017-Aug-18 08:58N 28°09' W 015°25'0 0.0
2017-Aug-18 08:28N 28°09' W 015°25'0 0.0
2017-Aug-18 07:58N 28°09' W 015°25'0 0.0
2017-Aug-18 07:30N 28°09' W 015°25'0 0.5
2017-Aug-18 07:00N 28°09' W 015°25'2 4.0
2017-Aug-18 06:30N 28°08' W 015°23'5 9.9
2017-Aug-18 06:00N 28°12' W 015°25'713.8
2017-Aug-18 05:30N 28°13' W 015°32'713.4
2017-Aug-18 05:00N 28°15' W 015°40'713.1
2017-Aug-18 04:30N 28°17' W 015°47'713.1
2017-Aug-18 04:00N 28°20' W 015°54'613.2
2017-Aug-18 03:30N 28°23' W 016°00'913.1
2017-Aug-18 02:52N 28°27' W 016°09'511.5
2017-Aug-18 02:26N 28°29' W 016°14'0 0.9
2017-Aug-18 02:00N 28°29' W 016°14'0 0.0
2017-Aug-18 01:30N 28°29' W 016°14'0 0.0
2017-Aug-18 01:00N 28°29' W 016°14'0 0.0
2017-Aug-18 00:30N 28°29' W 016°14'0 0.0
2017-Aug-18 00:00N 28°29' W 016°14'0 0.0
2017-Aug-17 23:30N 28°29' W 016°14'0 0.0
2017-Aug-17 23:00N 28°29' W 016°14'0 0.0
2017-Aug-17 22:29N 28°29' W 016°14'0 0.0
2017-Aug-17 22:00N 28°29' W 016°14'0 0.0
2017-Aug-17 21:30N 28°29' W 016°14'0 0.0
2017-Aug-17 21:00N 28°29' W 016°14'0 0.0
2017-Aug-17 20:30N 28°29' W 016°14'0 0.0
2017-Aug-17 20:00N 28°29' W 016°14'0 0.0
2017-Aug-17 19:30N 28°29' W 016°14'0 0.0
2017-Aug-17 19:00N 28°29' W 016°14'0 0.0
2017-Aug-17 18:30N 28°29' W 016°14'0 0.0
2017-Aug-17 18:00N 28°29' W 016°14'0 0.0
2017-Aug-17 17:30N 28°29' W 016°14'0 0.0
2017-Aug-17 17:00N 28°29' W 016°14'0 0.0
2017-Aug-17 16:30N 28°29' W 016°14'0 0.0
2017-Aug-17 16:00N 28°29' W 016°14'0 0.0
2017-Aug-17 15:29N 28°29' W 016°14'0 0.0
2017-Aug-17 14:32N 28°29' W 016°14'0 0.0
2017-Aug-17 14:29N 28°29' W 016°14'0 0.0
2017-Aug-17 13:58N 28°29' W 016°14'0 0.0
2017-Aug-17 13:30N 28°29' W 016°14'0 0.0
2017-Aug-17 12:59N 28°29' W 016°14'0 0.6
2017-Aug-17 12:29N 28°29' W 016°14'2 3.2
2017-Aug-17 12:00N 28°28' W 016°12'611.9
2017-Aug-17 11:29N 28°31' W 016°06'714.5
2017-Aug-17 11:00N 28°36' W 016°00'714.3
2017-Aug-17 10:30N 28°41' W 015°55'714.3
2017-Aug-17 10:00N 28°46' W 015°49'714.5
2017-Aug-17 09:30N 28°51' W 015°43'714.4
2017-Aug-17 09:00N 28°56' W 015°37'714.3
2017-Aug-17 08:30N 29°01' W 015°32'714.5
2017-Aug-17 08:00N 29°07' W 015°26'714.3
2017-Aug-17 07:30N 29°12' W 015°20'714.3
2017-Aug-17 07:00N 29°17' W 015°14'714.3
2017-Aug-17 06:30N 29°22' W 015°09'714.3
2017-Aug-17 06:00N 29°27' W 015°03'714.8
2017-Aug-17 05:30N 29°33' W 014°57'715.1
2017-Aug-17 05:00N 29°38' W 014°52'713.6
2017-Aug-17 04:30N 29°41' W 014°45'714.5
2017-Aug-17 04:00N 29°46' W 014°39'814.5
2017-Aug-17 03:28N 29°52' W 014°32'1214.0
2017-Aug-17 02:37N 29°60' W 014°22'1614.5
2017-Aug-17 01:32N 30°11' W 014°09'114.9
2017-Aug-17 01:30N 30°11' W 014°08'1614.6
2017-Aug-17 00:24N 30°22' W 013°55'614.6
2017-Aug-17 00:01N 30°26' W 013°51'714.7
2017-Aug-16 23:30N 30°32' W 013°44'714.6
2017-Aug-16 23:01N 30°37' W 013°39'1614.5
2017-Aug-16 21:53N 30°48' W 013°25'614.4
2017-Aug-16 21:31N 30°52' W 013°20'714.3
2017-Aug-16 21:00N 30°57' W 013°14'714.2
2017-Aug-16 20:30N 31°02' W 013°08'714.1
2017-Aug-16 19:59N 31°07' W 013°02'714.1
2017-Aug-16 19:30N 31°12' W 012°57'714.1
2017-Aug-16 19:00N 31°17' W 012°51'814.0
2017-Aug-16 18:26N 31°22' W 012°44'614.2
2017-Aug-16 18:00N 31°27' W 012°39'714.2
2017-Aug-16 17:31N 31°32' W 012°33'714.1
2017-Aug-16 17:00N 31°36' W 012°27'714.1
2017-Aug-16 16:30N 31°41' W 012°21'814.2
2017-Aug-16 15:57N 31°46' W 012°14'714.5
2017-Aug-16 15:30N 31°51' W 012°08'1714.3
2017-Aug-16 14:18N 32°03' W 011°54'4414.2
2017-Aug-16 11:13N 32°34' W 011°18'2614.0
2017-Aug-16 09:21N 32°52' W 010°55'1414.2
2017-Aug-16 08:20N 33°02' W 010°43'514.4
2017-Aug-16 08:00N 33°06' W 010°39'11913.7
2017-Aug-15 23:21N 34°29' W 008°57'1613.5
2017-Aug-15 22:12N 34°40' W 008°43'313.7
2017-Aug-15 22:00N 34°42' W 008°41'1314.0
2017-Aug-15 21:07N 34°50' W 008°30'314.2
2017-Aug-15 20:55N 34°52' W 008°28'3114.5
2017-Aug-15 18:48N 35°13' W 008°01'514.4
2017-Aug-15 18:27N 35°17' W 007°56'2314.3
2017-Aug-15 16:53N 35°33' W 007°37'614.5
2017-Aug-15 16:29N 35°37' W 007°32'714.4
2017-Aug-15 16:00N 35°42' W 007°26'  
2017-Aug-13 11:46N 33°12' W 010°04'3413.5
2017-Aug-13 09:15N 32°48' W 010°34'313.8
2017-Aug-13 09:00N 32°46' W 010°37'713.8
2017-Aug-13 08:30N 32°42' W 010°43'11012.9
2017-Aug-13 00:02N 31°25' W 012°16'112.9
2017-Aug-12 23:59N 31°25' W 012°16'712.7
2017-Aug-12 23:24N 31°20' W 012°22'512.5
2017-Aug-12 23:00N 31°16' W 012°26'612.4
2017-Aug-12 22:30N 31°12' W 012°31'612.9
2017-Aug-12 22:00N 31°07' W 012°37'612.8
2017-Aug-12 21:30N 31°03' W 012°42'612.4
2017-Aug-12 21:00N 30°59' W 012°47'712.5
2017-Aug-12 20:29N 30°54' W 012°53'912.7
2017-Aug-12 19:48N 30°49' W 013°01'412.8
2017-Aug-12 19:30N 30°46' W 013°04'612.6
2017-Aug-12 19:00N 30°42' W 013°09'613.0
2017-Aug-12 18:30N 30°38' W 013°15'713.2
2017-Aug-12 18:00N 30°33' W 013°21'613.0
2017-Aug-12 17:30N 30°29' W 013°27'613.2
2017-Aug-12 17:00N 30°25' W 013°33'713.2
2017-Aug-12 16:30N 30°21' W 013°39'713.4
2017-Aug-12 16:00N 30°17' W 013°45'913.0
2017-Aug-12 15:21N 30°12' W 013°53'713.3
2017-Aug-12 14:50N 30°08' W 013°59'6313.3
2017-Aug-12 10:06N 29°27' W 014°54'313.3
2017-Aug-12 09:55N 29°26' W 014°57'513.1
2017-Aug-12 09:30N 29°22' W 015°01'612.9
2017-Aug-12 09:00N 29°18' W 015°07'612.8
2017-Aug-12 08:30N 29°14' W 015°12'612.7
2017-Aug-12 08:00N 29°10' W 015°18'611.9
2017-Aug-12 07:30N 29°06' W 015°23'612.1
2017-Aug-12 07:00N 29°02' W 015°28'612.1
2017-Aug-12 06:30N 28°58' W 015°34'612.2
2017-Aug-12 06:00N 28°54' W 015°39'612.4
2017-Aug-12 05:30N 28°50' W 015°44'612.1
2017-Aug-12 05:00N 28°46' W 015°49'611.8
2017-Aug-12 04:30N 28°41' W 015°54'612.0
2017-Aug-12 04:00N 28°37' W 015°58'611.8
2017-Aug-12 03:30N 28°33' W 016°03'612.2
2017-Aug-12 03:00N 28°29' W 016°09'4 8.5
2017-Aug-12 02:29N 28°29' W 016°14'0 0.2
2017-Aug-12 01:56N 28°29' W 016°14'0 0.0
2017-Aug-12 01:29N 28°29' W 016°14'0 0.0
2017-Aug-12 00:56N 28°29' W 016°14'0 0.0
2017-Aug-12 00:29N 28°29' W 016°14'0 0.0
2017-Aug-11 23:44N 28°29' W 016°14'0 0.0
2017-Aug-11 23:26N 28°29' W 016°14'0 0.0
2017-Aug-11 21:12N 28°29' W 016°14'1 3.1
2017-Aug-11 20:56N 28°28' W 016°14'5 5.2
2017-Aug-11 19:57N 28°28' W 016°08'1 1.6
2017-Aug-11 19:30N 28°27' W 016°09'611.2
2017-Aug-11 19:00N 28°24' W 016°13'3 5.3
2017-Aug-11 18:30N 28°22' W 016°16'611.6
2017-Aug-11 18:00N 28°23' W 016°09'611.7
2017-Aug-11 17:29N 28°23' W 016°02'712.8
2017-Aug-11 16:58N 28°21' W 015°55'613.2
2017-Aug-11 16:30N 28°20' W 015°48'713.2
2017-Aug-11 16:00N 28°17' W 015°41'713.3
2017-Aug-11 15:30N 28°15' W 015°34'713.2
2017-Aug-11 15:00N 28°13' W 015°27'5 4.2
2017-Aug-11 13:56N 28°09' W 015°25'0 0.0
2017-Aug-11 13:29N 28°09' W 015°25'0 0.0
2017-Aug-11 12:59N 28°09' W 015°25'0 0.0
2017-Aug-11 12:29N 28°09' W 015°25'0 0.0
2017-Aug-11 11:59N 28°09' W 015°25'0 0.0
2017-Aug-11 11:29N 28°09' W 015°25'0 0.0
2017-Aug-11 10:59N 28°09' W 015°25'0 0.0
2017-Aug-11 10:29N 28°09' W 015°25'0 0.0
2017-Aug-11 09:56N 28°09' W 015°25'0 0.0
2017-Aug-11 09:29N 28°09' W 015°25'0 0.0
2017-Aug-11 08:59N 28°09' W 015°25'0 0.0
2017-Aug-11 08:29N 28°09' W 015°25'0 0.0
2017-Aug-11 07:59N 28°09' W 015°25'0 0.0
2017-Aug-11 07:30N 28°09' W 015°25'0 0.2
2017-Aug-11 07:00N 28°09' W 015°25'2 3.9
2017-Aug-11 06:30N 28°07' W 015°24'1 1.8
2017-Aug-11 06:00N 28°08' W 015°23'510.3
2017-Aug-11 05:30N 28°12' W 015°25'612.5
2017-Aug-11 05:00N 28°15' W 015°32'612.4
2017-Aug-11 04:30N 28°17' W 015°38'612.2
2017-Aug-11 04:00N 28°19' W 015°45'612.0
2017-Aug-11 03:30N 28°21' W 015°52'612.5
2017-Aug-11 03:00N 28°23' W 015°58'612.1
2017-Aug-11 02:29N 28°25' W 016°05'812.8
2017-Aug-11 01:53N 28°28' W 016°13'1 3.5
2017-Aug-11 01:30N 28°29' W 016°14'0 0.0
2017-Aug-11 00:58N 28°29' W 016°14'0 0.0
2017-Aug-11 00:30N 28°29' W 016°14'0 0.0
2017-Aug-11 00:00N 28°29' W 016°14'0 0.0
2017-Aug-10 23:30N 28°29' W 016°14'0 0.0
2017-Aug-10 23:00N 28°29' W 016°14'0 0.0
2017-Aug-10 22:30N 28°29' W 016°14'0 0.2
2017-Aug-10 22:00N 28°29' W 016°14'3 5.3
2017-Aug-10 21:30N 28°28' W 016°11'714.9
2017-Aug-10 21:00N 28°32' W 016°04'1014.9
2017-Aug-10 20:19N 28°40' W 015°55'414.3
2017-Aug-10 20:00N 28°43' W 015°52'714.2
2017-Aug-10 19:29N 28°48' W 015°46'714.0
2017-Aug-10 19:00N 28°53' W 015°40'713.9
2017-Aug-10 18:30N 28°58' W 015°35'714.0
2017-Aug-10 18:00N 29°03' W 015°29'813.9
2017-Aug-10 17:25N 29°08' W 015°22'613.7
2017-Aug-10 17:00N 29°12' W 015°18'713.8
2017-Aug-10 16:30N 29°17' W 015°12'713.1
2017-Aug-10 16:00N 29°21' W 015°06'713.4
2017-Aug-10 15:28N 29°26' W 015°00'913.5
2017-Aug-10 14:48N 29°33' W 014°53'1513.9
2017-Aug-10 13:43N 29°43' W 014°41'313.7
2017-Aug-10 13:29N 29°46' W 014°38'713.9
2017-Aug-10 12:58N 29°51' W 014°32'2714.0
2017-Aug-10 11:04N 30°10' W 014°11'114.1
2017-Aug-10 11:00N 30°10' W 014°10'713.9
2017-Aug-10 10:30N 30°15' W 014°05'2013.8
2017-Aug-10 09:05N 30°29' W 013°48'114.1
2017-Aug-10 08:58N 30°30' W 013°47'2514.0
2017-Aug-10 07:11N 30°47' W 013°26'1413.5
2017-Aug-10 06:07N 30°57' W 013°13'213.5
2017-Aug-10 06:00N 30°58' W 013°12'913.3
2017-Aug-10 05:19N 31°05' W 013°05'613.5
2017-Aug-10 04:53N 31°09' W 013°00'513.0
2017-Aug-10 04:30N 31°13' W 012°56'613.0
2017-Aug-10 04:00N 31°17' W 012°51'18713.5
2017-Aug-09 14:10N 33°27' W 010°12'313.8
2017-Aug-09 13:59N 33°29' W 010°10'2813.9
2017-Aug-09 11:59N 33°48' W 009°46'1013.9
2017-Aug-09 11:15N 33°55' W 009°37'  

Dump ship's entire track history